»·PEaware :: N198ME KTOA-KVNY

N198ME :: KTOA-KVNY

FLIGHT INFORMATION

Flight Status: Arrived
Operator: Privately registered:
United States
More flights under this callsign
Pilot: Juan S. (26712)
Aircraft: CESSNA 172 SKYHAWK
(C172)
More flights by this aircraft type
Origin: KTOA Zamperini
United States
Destination: KVNY Van Nuys
United States
More flights between these airports :: More routes between these airports
Route: LAX170 LIMBO V64 SMO125 SMO SMO317 CANOG
File this flight plan on PilotEdge
Remarks: Scenario 1
Altitude:
(Current/Filed)
4,000ft
Speed:
(Current/Filed)
110kts
Departed: 18-Dec-19 09:24 PM
Arrived: 18-Dec-19 10:47 PM
Distance/Time
Traveled:
26nm/1:23
Distance/Time
To Go:
Arrived

Flight Plot

Page will automatically refresh every two minutes.

Flight plan parsing failed; only flown route is shown


Map Options




Map Legend


Flown Route
Filed Route
Departure Airport
Arrival Airport
Navaid (VOR, NDB)
Fix

Horizontal Profiles

Position Reports

Time Latitude Longitude Heading Altitude Ground
Speed
18-Dec-19 20:50 33.801075 -118.340641 218 106ft 0kts
18-Dec-19 20:51 33.801075 -118.340641 218 106ft 0kts
18-Dec-19 20:52 33.801075 -118.340641 218 106ft 0kts
18-Dec-19 20:53 33.801075 -118.340641 218 106ft 0kts
18-Dec-19 20:54 33.801075 -118.340641 218 106ft 0kts
18-Dec-19 20:55 33.801075 -118.340641 218 106ft 0kts
18-Dec-19 20:56 33.801075 -118.340641 218 106ft 0kts
18-Dec-19 20:57 33.801075 -118.340641 218 106ft 0kts
18-Dec-19 20:58 33.801075 -118.340641 218 106ft 0kts
18-Dec-19 20:59 33.801075 -118.340641 218 106ft 0kts
18-Dec-19 21:00 33.801075 -118.340641 218 106ft 0kts
18-Dec-19 21:01 33.801075 -118.340641 218 106ft 0kts
18-Dec-19 21:02 33.801075 -118.340641 218 106ft 0kts
18-Dec-19 21:03 33.801075 -118.340641 218 106ft 0kts
18-Dec-19 21:04 33.801075 -118.340641 218 106ft 0kts
18-Dec-19 21:05 33.801075 -118.340641 218 106ft 0kts
18-Dec-19 21:06 33.801069 -118.340648 220 106ft 0kts
18-Dec-19 21:07 33.801066 -118.340651 220 106ft 0kts
18-Dec-19 21:08 33.801066 -118.340651 220 106ft 0kts
18-Dec-19 21:09 33.801066 -118.340651 220 106ft 0kts
18-Dec-19 21:10 33.801066 -118.340651 220 106ft 0kts
18-Dec-19 21:11 33.801066 -118.340651 220 106ft 0kts
18-Dec-19 21:12 33.801066 -118.340651 220 106ft 0kts
18-Dec-19 21:13 33.801066 -118.340651 220 106ft 0kts
18-Dec-19 21:14 33.800891 -118.340610 130 106ft 7kts
18-Dec-19 21:15 33.799833 -118.337276 121 104ft 18kts
18-Dec-19 21:16 33.798529 -118.333613 58 102ft 10kts
18-Dec-19 21:17 33.798957 -118.333215 355 101ft 0kts
18-Dec-19 21:18 33.798957 -118.333215 355 101ft 0kts
18-Dec-19 21:19 33.798957 -118.333215 355 101ft 0kts
18-Dec-19 21:20 33.798957 -118.333215 355 101ft 0kts
18-Dec-19 21:21 33.799162 -118.333245 11 100ft 0kts
18-Dec-19 21:22 33.799168 -118.333240 36 100ft 0kts
18-Dec-19 21:23 33.806943 -118.344348 302 627ft 72kts
18-Dec-19 21:24 33.818388 -118.363366 304 1779ft 70kts
18-Dec-19 21:25 33.828675 -118.383375 302 2834ft 71kts
18-Dec-19 21:26 33.839647 -118.403139 304 3826ft 72kts
18-Dec-19 21:27 33.853501 -118.427697 304 4098ft 99kts
18-Dec-19 21:28 33.837689 -118.451015 176 3972ft 124kts
18-Dec-19 21:29 33.803920 -118.446356 181 3965ft 120kts
18-Dec-19 21:30 33.770825 -118.443835 163 3957ft 123kts
18-Dec-19 21:31 33.762031 -118.406449 84 4015ft 128kts
18-Dec-19 21:32 33.763481 -118.363233 86 3993ft 129kts
18-Dec-19 21:33 33.765710 -118.319955 86 3987ft 129kts
18-Dec-19 21:34 33.766810 -118.277026 86 4008ft 127kts
18-Dec-19 21:35 33.769780 -118.235203 77 4031ft 123kts
18-Dec-19 21:36 33.786135 -118.210080 332 4032ft 106kts
18-Dec-19 21:37 33.798849 -118.240941 311 4019ft 104kts
18-Dec-19 21:38 33.818200 -118.266873 317 4001ft 104kts
18-Dec-19 21:39 33.839541 -118.290792 317 3970ft 105kts
18-Dec-19 21:40 33.862618 -118.312696 325 3945ft 106kts
18-Dec-19 21:41 33.886682 -118.333259 328 3935ft 106kts
18-Dec-19 21:42 33.910693 -118.354444 315 3962ft 108kts
18-Dec-19 21:43 33.931474 -118.380699 321 3999ft 108kts
18-Dec-19 21:44 33.954703 -118.403424 321 4046ft 106kts
18-Dec-19 21:45 33.979409 -118.423069 329 4032ft 106kts
18-Dec-19 21:46 34.001633 -118.446506 320 4020ft 106kts
18-Dec-19 21:47 34.025932 -118.465936 333 4006ft 105kts
18-Dec-19 21:48 34.052857 -118.480261 333 3996ft 105kts
18-Dec-19 21:49 34.079757 -118.495146 331 4034ft 109kts
18-Dec-19 21:50 34.104954 -118.513099 327 4637ft 105kts
18-Dec-19 21:51 34.131054 -118.529132 335 4983ft 107kts
18-Dec-19 21:52 34.161288 -118.533473 354 4963ft 112kts
18-Dec-19 21:53 34.192441 -118.535957 350 4952ft 112kts
18-Dec-19 21:54 34.223485 -118.540161 347 4948ft 112kts
18-Dec-19 21:55 34.254874 -118.544325 350 4985ft 113kts
18-Dec-19 21:56 34.286308 -118.547815 349 5025ft 113kts
18-Dec-19 21:57 34.317609 -118.552930 348 4998ft 113kts
18-Dec-19 21:58 34.348948 -118.557232 348 4941ft 114kts
18-Dec-19 21:59 34.380301 -118.561650 350 4958ft 114kts
18-Dec-19 22:00 34.411649 -118.566092 349 4993ft 112kts
18-Dec-19 22:01 34.442415 -118.571050 347 5028ft 111kts
18-Dec-19 22:02 34.469521 -118.562431 70 5054ft 122kts
18-Dec-19 22:03 34.449225 -118.530367 141 5059ft 128kts
18-Dec-19 22:04 34.420433 -118.505283 152 4994ft 127kts
18-Dec-19 22:05 34.386961 -118.500607 188 4646ft 127kts
18-Dec-19 22:06 34.356083 -118.504906 187 4596ft 98kts
18-Dec-19 22:07 34.328242 -118.502081 173 4022ft 102kts
18-Dec-19 22:08 34.300559 -118.499636 178 3155ft 101kts
18-Dec-19 22:09 34.273470 -118.496315 184 2368ft 96kts
18-Dec-19 22:10 34.246974 -118.493630 190 1697ft 95kts
18-Dec-19 22:11 34.221123 -118.491446 179 1045ft 84kts
18-Dec-19 22:12 34.193233 -118.487672 172 1542ft 114kts
18-Dec-19 22:13 34.163064 -118.474786 158 2246ft 105kts
18-Dec-19 22:14 34.134035 -118.468772 174 3084ft 108kts
18-Dec-19 22:15 34.105449 -118.455335 158 3861ft 112kts
18-Dec-19 22:16 34.074377 -118.447375 180 4440ft 114kts
18-Dec-19 22:17 34.041020 -118.445249 184 4618ft 125kts
18-Dec-19 22:18 34.016311 -118.466604 276 4536ft 116kts
18-Dec-19 22:19 34.020202 -118.504362 284 4618ft 113kts
18-Dec-19 22:20 34.026521 -118.541487 284 4679ft 112kts
18-Dec-19 22:21 34.031377 -118.579826 282 4599ft 118kts
18-Dec-19 22:22 34.037154 -118.618272 279 4574ft 117kts
18-Dec-19 22:23 34.041614 -118.656891 278 4562ft 117kts
18-Dec-19 22:24 34.043250 -118.695946 277 4452ft 109kts
18-Dec-19 22:25 34.045065 -118.731075 278 4463ft 108kts
18-Dec-19 22:26 34.047854 -118.769081 286 4463ft 116kts
18-Dec-19 22:27 34.054404 -118.807505 286 4463ft 118kts
18-Dec-19 22:28 34.062778 -118.845194 324 4462ft 110kts
18-Dec-19 22:29 34.090931 -118.853312 351 4465ft 103kts
18-Dec-19 22:30 34.119222 -118.859988 351 4465ft 103kts
18-Dec-19 22:31 34.147434 -118.865726 356 4465ft 103kts
18-Dec-19 22:32 34.176042 -118.868921 14 4461ft 102kts
18-Dec-19 22:33 34.181649 -118.836131 87 4465ft 110kts
18-Dec-19 22:34 34.184851 -118.800343 54 4463ft 105kts
18-Dec-19 22:35 34.202265 -118.773054 91 4381ft 111kts
18-Dec-19 22:36 34.200004 -118.735717 78 4386ft 111kts
18-Dec-19 22:37 34.201011 -118.697816 88 4368ft 115kts
18-Dec-19 22:38 34.201433 -118.658963 81 3764ft 114kts
18-Dec-19 22:39 34.202786 -118.621542 86 3430ft 111kts
18-Dec-19 22:40 34.200143 -118.587375 90 2934ft 96kts
18-Dec-19 22:41 34.200183 -118.555208 82 2482ft 95kts
18-Dec-19 22:42 34.199626 -118.523489 90 1995ft 93kts
18-Dec-19 22:44 34.202263 -118.493868 2 1394ft 92kts
18-Dec-19 22:45 34.222860 -118.503724 9 1690ft 86kts
18-Dec-19 22:46 34.215139 -118.489605 176 825ft 59kts
18-Dec-19 22:47 34.210269 -118.487934 93 806ft 12kts

Navigation Log

Ident Type
Flight plan parsing failed, navigation log unavailable